< < Back
Terminal Aerodrome Forecast


Current Version              Previous Versions:   1  2  3  4  5  6  7  8  9  

Terminal Aerodrome Forecast

011
FTUS42 KTAE 271127
TAFTLH
TAF
KTLH 271127Z 2712/2812 22004KT 3SM BR FEW003 SCT017 OVC040
      TEMPO 2712/2714 -DZ BKN006 OVC015
     FM271400 30010G15KT P6SM BKN015
     FM271800 31013G22KT P6SM SCT015 BKN250
     FM280000 30006KT P6SM SKC=

Latest METAR

855
SAUS80 KWBC 271900 RRC
MTRTLH
METAR KTLH 271853Z AUTO 32013KT 10SM BKN021 OVC026 17/11 A2985 RMK AO2
SLP108 T01670106


USA.gov is the U.S. government's official web portal to all federal, state and local government web resources and services.